createdAt,value
2018-10-16T00:03:29.649Z,21.62
2018-10-16T00:08:33.119Z,21.65
2018-10-16T00:13:36.577Z,21.62
2018-10-16T00:18:40.059Z,21.60
2018-10-16T00:23:43.543Z,21.64
2018-10-16T00:28:47.023Z,21.64
2018-10-16T00:33:50.479Z,21.70
2018-10-16T00:38:53.945Z,21.65
2018-10-16T00:43:57.407Z,21.65
2018-10-16T00:49:00.849Z,21.66
2018-10-16T00:54:04.291Z,21.70
2018-10-16T00:59:08.156Z,21.67
2018-10-16T01:04:11.588Z,21.72
2018-10-16T01:09:15.175Z,21.72
2018-10-16T01:14:18.652Z,21.70
2018-10-16T01:24:24.674Z,21.72
2018-10-16T01:29:28.140Z,21.69
2018-10-16T01:34:31.633Z,21.71
2018-10-16T01:49:40.041Z,21.72
2018-10-16T01:54:43.491Z,21.76
2018-10-16T01:59:46.933Z,21.79
2018-10-16T02:04:50.378Z,21.76
2018-10-16T02:09:53.820Z,21.74
2018-10-16T02:14:57.350Z,21.78
2018-10-16T02:20:00.771Z,21.74
2018-10-16T02:25:04.388Z,21.68
2018-10-16T02:30:07.945Z,21.68
2018-10-16T02:35:12.279Z,21.65
2018-10-16T02:40:15.749Z,21.64
2018-10-16T02:45:19.213Z,21.62
2018-10-16T02:50:22.671Z,21.61
2018-10-16T02:55:26.103Z,21.60
2018-10-16T03:00:29.561Z,21.61
2018-10-16T03:05:32.991Z,21.57
2018-10-16T03:10:36.420Z,21.54
2018-10-16T03:15:39.860Z,21.52
2018-10-16T03:20:43.321Z,21.53
2018-10-16T03:25:46.757Z,21.49
2018-10-16T03:30:50.203Z,21.47
2018-10-16T03:35:53.641Z,21.44
2018-10-16T03:40:57.093Z,21.54
2018-10-16T03:46:00.533Z,21.50
2018-10-16T03:51:03.963Z,21.59
2018-10-16T03:56:07.401Z,21.61
2018-10-16T04:01:10.843Z,21.63
2018-10-16T04:06:14.281Z,21.58
2018-10-16T04:11:17.758Z,21.56
2018-10-16T04:16:21.196Z,21.54
2018-10-16T04:21:28.708Z,21.54
2018-10-16T04:26:32.117Z,21.52
2018-10-16T04:31:35.532Z,21.51
2018-10-16T04:36:39.000Z,21.50
2018-10-16T04:41:42.869Z,21.49
2018-10-16T04:46:46.237Z,21.48
2018-10-16T04:51:49.652Z,21.50
2018-10-16T04:56:53.061Z,21.48
2018-10-16T05:01:56.463Z,21.48
2018-10-16T05:06:59.877Z,21.48
2018-10-16T05:12:03.287Z,21.45
2018-10-16T05:17:06.719Z,21.44
2018-10-16T05:22:10.141Z,21.42
2018-10-16T05:27:13.556Z,21.32
2018-10-16T05:32:16.961Z,21.15
2018-10-16T05:37:20.373Z,21.05
2018-10-16T05:42:23.784Z,21.06
2018-10-16T05:47:27.224Z,21.01
2018-10-16T05:52:30.651Z,20.98
2018-10-16T05:57:34.067Z,20.82
2018-10-16T06:02:37.468Z,20.80
2018-10-16T06:07:41.240Z,20.82
2018-10-16T06:12:44.652Z,20.78
2018-10-16T06:17:48.064Z,20.71
2018-10-16T06:22:51.476Z,20.62
2018-10-16T06:27:54.952Z,20.72
2018-10-16T06:32:58.327Z,20.80
2018-10-16T06:38:01.766Z,20.79
2018-10-16T06:43:05.608Z,20.81
2018-10-16T06:48:09.696Z,20.45
2018-10-16T06:53:13.002Z,20.67
2018-10-16T06:58:16.368Z,20.69
2018-10-16T07:03:19.788Z,20.68
2018-10-16T07:08:23.253Z,20.13
2018-10-16T07:13:26.671Z,20.46
2018-10-16T07:18:30.075Z,20.19
2018-10-16T07:23:33.551Z,20.25
2018-10-16T07:28:36.940Z,20.20
2018-10-16T07:33:40.356Z,19.83
2018-10-16T07:38:43.808Z,19.88
2018-10-16T07:43:47.226Z,20.15
2018-10-16T07:48:50.658Z,20.21
2018-10-16T07:53:54.082Z,20.34
2018-10-16T07:58:57.497Z,20.06
2018-10-16T08:04:00.913Z,20.01
2018-10-16T08:09:06.709Z,20.21
2018-10-16T08:14:10.209Z,20.23
2018-10-16T08:19:14.075Z,20.02
2018-10-16T08:24:17.479Z,20.36
2018-10-16T08:29:20.887Z,20.36
2018-10-16T08:34:24.298Z,20.22
2018-10-16T08:39:30.676Z,19.68
2018-10-16T08:44:46.813Z,19.32
2018-10-16T08:50:01.561Z,19.47
2018-10-16T08:55:05.978Z,19.68
2018-10-16T09:00:09.396Z,20.05
2018-10-16T09:05:12.825Z,19.61
2018-10-16T09:10:16.273Z,18.73
2018-10-16T09:15:19.732Z,17.86
2018-10-16T09:20:23.169Z,17.69
2018-10-16T09:25:26.581Z,17.60
2018-10-16T09:30:30.001Z,17.57
2018-10-16T09:35:33.493Z,17.36
2018-10-16T09:40:36.942Z,17.78
2018-10-16T09:45:40.397Z,18.39
2018-10-16T09:50:43.837Z,18.51
2018-10-16T09:55:47.277Z,19.23
2018-10-16T10:00:56.058Z,19.60
2018-10-16T10:05:59.529Z,19.38
2018-10-16T10:11:03.030Z,19.50
2018-10-16T10:16:07.017Z,19.61
2018-10-16T10:21:10.461Z,19.87
2018-10-16T10:26:13.905Z,19.46
2018-10-16T10:31:17.345Z,19.74
2018-10-16T10:36:20.780Z,19.77
2018-10-16T10:41:24.212Z,19.84
2018-10-16T10:46:27.665Z,19.00
2018-10-16T10:51:31.356Z,19.07
2018-10-16T10:56:34.675Z,18.98
2018-10-16T11:01:38.075Z,18.48
2018-10-16T11:06:41.508Z,18.83
2018-10-16T11:11:50.168Z,19.45
2018-10-16T11:16:53.617Z,19.52
2018-10-16T11:21:57.076Z,19.66
2018-10-16T11:27:00.586Z,19.11
2018-10-16T11:32:03.993Z,18.40
2018-10-16T11:37:07.598Z,18.99
2018-10-16T11:42:10.977Z,19.60
2018-10-16T11:47:14.440Z,19.97
2018-10-16T11:52:17.923Z,19.58
2018-10-16T11:57:21.333Z,19.22
2018-10-16T12:02:24.775Z,19.58
2018-10-16T12:07:28.206Z,19.84
2018-10-16T12:12:31.649Z,19.91
2018-10-16T12:18:37.923Z,19.94
2018-10-16T12:23:41.375Z,19.85
2018-10-16T12:28:44.793Z,19.92
2018-10-16T12:33:48.268Z,19.42
2018-10-16T12:38:51.773Z,19.90
2018-10-16T12:43:55.269Z,19.80
2018-10-16T12:48:58.604Z,19.57
2018-10-16T12:54:02.060Z,20.15
2018-10-16T12:59:05.548Z,19.68
2018-10-16T13:04:08.913Z,18.52
2018-10-16T13:09:13.086Z,18.78
2018-10-16T13:14:16.468Z,18.79
2018-10-16T13:19:19.871Z,18.19
2018-10-16T13:24:23.297Z,18.95
2018-10-16T13:29:26.906Z,20.12
2018-10-16T13:34:30.188Z,20.41
2018-10-16T13:39:33.620Z,20.53
2018-10-16T13:44:37.069Z,20.64
2018-10-16T13:49:40.497Z,20.73
2018-10-16T13:54:43.928Z,20.81
2018-10-16T13:59:47.362Z,20.85
2018-10-16T14:04:50.871Z,20.89
2018-10-16T14:09:54.251Z,20.86
2018-10-16T14:14:57.718Z,20.87
2018-10-16T14:20:01.200Z,20.89
2018-10-16T14:25:04.868Z,20.91
2018-10-16T14:30:09.817Z,20.94
2018-10-16T14:35:13.808Z,20.96
2018-10-16T14:40:17.321Z,20.99
2018-10-16T14:45:20.756Z,21.02
2018-10-16T14:50:24.204Z,21.06
2018-10-16T14:55:27.645Z,21.08
2018-10-16T15:00:31.077Z,21.10
2018-10-16T15:05:34.493Z,21.13
2018-10-16T15:10:37.904Z,21.17
2018-10-16T15:15:41.311Z,21.24
2018-10-16T15:20:44.730Z,21.29
2018-10-16T15:25:48.183Z,21.39
2018-10-16T15:30:51.772Z,21.40
2018-10-16T15:35:55.405Z,21.45
2018-10-16T15:40:58.861Z,21.48
2018-10-16T15:46:02.348Z,21.53
2018-10-16T15:51:05.817Z,21.52
2018-10-16T15:56:09.244Z,21.47
2018-10-16T16:01:12.658Z,21.50
2018-10-16T16:06:16.068Z,21.53
2018-10-16T16:11:19.484Z,21.61
2018-10-16T16:16:22.895Z,21.65
2018-10-16T16:21:26.530Z,21.68
2018-10-16T16:26:30.897Z,21.75
2018-10-16T16:31:34.339Z,21.70
2018-10-16T16:36:37.905Z,21.79
2018-10-16T16:41:41.319Z,21.72
2018-10-16T16:46:44.723Z,21.80
2018-10-16T16:51:48.137Z,21.84
2018-10-16T16:56:51.576Z,21.82
2018-10-16T17:01:55.314Z,21.83
2018-10-16T17:06:58.745Z,21.85
2018-10-16T17:12:02.206Z,21.89
2018-10-16T17:17:05.669Z,21.89
2018-10-16T17:22:09.220Z,21.94
2018-10-16T17:27:12.709Z,21.94
2018-10-16T17:32:16.610Z,21.94
2018-10-16T17:37:20.059Z,21.95
2018-10-16T17:42:23.536Z,21.95
2018-10-16T17:47:26.955Z,21.95
2018-10-16T17:52:30.429Z,22.02
2018-10-16T17:57:33.907Z,22.08
2018-10-16T18:02:37.330Z,22.07
2018-10-16T18:07:40.833Z,22.01
2018-10-16T18:12:44.281Z,21.99
2018-10-16T18:17:47.719Z,22.15
2018-10-16T18:22:51.133Z,22.05
2018-10-16T18:27:54.564Z,22.02
2018-10-16T18:32:57.991Z,22.01
2018-10-16T18:38:01.392Z,22.00
2018-10-16T18:43:05.051Z,22.01
2018-10-16T18:48:09.307Z,22.04
2018-10-16T18:53:12.716Z,22.02
2018-10-16T18:58:16.188Z,22.00
2018-10-16T19:03:19.609Z,22.01
2018-10-16T19:08:23.023Z,22.02
2018-10-16T19:13:26.426Z,22.01
2018-10-16T19:18:29.843Z,22.04
2018-10-16T19:23:33.257Z,22.05
2018-10-16T19:28:36.701Z,22.05
2018-10-16T19:33:40.261Z,22.06
2018-10-16T19:38:43.680Z,22.05
2018-10-16T19:43:47.088Z,22.04
2018-10-16T19:48:50.508Z,22.09
2018-10-16T19:53:53.935Z,22.10
2018-10-16T19:58:57.380Z,22.07
2018-10-16T20:04:00.808Z,22.04
2018-10-16T20:09:05.943Z,22.06
2018-10-16T20:14:09.371Z,22.10
2018-10-16T20:19:12.821Z,22.05
2018-10-16T20:24:16.297Z,22.08
2018-10-16T20:29:19.860Z,22.08
2018-10-16T20:34:23.280Z,22.06
2018-10-16T20:39:26.687Z,22.10
2018-10-16T20:44:30.129Z,22.09
2018-10-16T20:49:33.563Z,22.10
2018-10-16T20:54:37.012Z,22.12
2018-10-16T20:59:42.020Z,22.11
2018-10-16T21:04:45.616Z,22.11
2018-10-16T21:09:49.111Z,22.10
2018-10-16T21:14:52.575Z,22.14
2018-10-16T21:19:55.998Z,22.12
2018-10-16T21:24:59.505Z,22.13
2018-10-16T21:30:03.622Z,22.12
2018-10-16T21:35:07.729Z,22.12
2018-10-16T21:40:11.749Z,22.16
2018-10-16T21:45:15.433Z,22.12
2018-10-16T21:50:18.888Z,22.12
2018-10-16T21:55:22.435Z,22.17
2018-10-16T22:00:31.621Z,22.13
2018-10-16T22:05:35.308Z,22.12
2018-10-16T22:10:38.747Z,22.16
2018-10-16T22:15:42.168Z,22.15
2018-10-16T22:20:45.581Z,22.10
2018-10-16T22:25:48.979Z,22.12
2018-10-16T22:30:52.461Z,22.11
2018-10-16T22:35:55.859Z,22.11
2018-10-16T22:40:59.311Z,22.11
2018-10-16T22:46:02.911Z,22.12
2018-10-16T22:51:06.322Z,22.11
2018-10-16T22:56:09.746Z,22.11
2018-10-16T23:01:13.413Z,22.11
2018-10-16T23:06:16.715Z,22.11
2018-10-16T23:11:20.352Z,22.12
2018-10-16T23:16:23.788Z,22.13
2018-10-16T23:21:27.270Z,22.09
2018-10-16T23:26:30.735Z,22.12
2018-10-16T23:31:34.295Z,22.10
2018-10-16T23:36:37.732Z,22.12
2018-10-16T23:41:42.059Z,22.12
2018-10-16T23:46:45.463Z,22.10
2018-10-16T23:51:48.907Z,22.11
2018-10-16T23:56:52.307Z,22.10
